sensor_id;sensor_type;location;lat;lon;timestamp;pressure;altitude;pressure_sealevel;temperature;humidity
46464;BME280;32161;48.148;-1.554;2023-04-22T00:00:30;99850.97;;;11.24;70.60
46464;BME280;32161;48.148;-1.554;2023-04-22T00:02:58;99849.06;;;11.24;71.52
46464;BME280;32161;48.148;-1.554;2023-04-22T00:05:27;99831.09;;;11.23;71.17
46464;BME280;32161;48.148;-1.554;2023-04-22T00:07:54;99838.97;;;11.20;71.58
46464;BME280;32161;48.148;-1.554;2023-04-22T00:10:22;99853.06;;;11.17;71.61
46464;BME280;32161;48.148;-1.554;2023-04-22T00:12:50;99851.44;;;11.16;71.85
46464;BME280;32161;48.148;-1.554;2023-04-22T00:15:19;99846.50;;;11.13;72.24
46464;BME280;32161;48.148;-1.554;2023-04-22T00:17:48;99833.16;;;11.11;71.34
46464;BME280;32161;48.148;-1.554;2023-04-22T00:20:16;99831.00;;;11.13;70.44
46464;BME280;32161;48.148;-1.554;2023-04-22T00:22:43;99813.34;;;11.16;69.13
46464;BME280;32161;48.148;-1.554;2023-04-22T00:25:11;99810.06;;;11.14;69.17
46464;BME280;32161;48.148;-1.554;2023-04-22T00:27:39;99812.53;;;11.15;69.38
46464;BME280;32161;48.148;-1.554;2023-04-22T00:30:08;99812.25;;;11.17;69.37
46464;BME280;32161;48.148;-1.554;2023-04-22T00:32:37;99819.34;;;11.18;69.01
46464;BME280;32161;48.148;-1.554;2023-04-22T00:35:06;99806.88;;;11.22;68.88
46464;BME280;32161;48.148;-1.554;2023-04-22T00:37:34;99796.00;;;11.22;68.78
46464;BME280;32161;48.148;-1.554;2023-04-22T00:40:01;99796.00;;;11.22;68.26
46464;BME280;32161;48.148;-1.554;2023-04-22T00:42:30;99806.88;;;11.22;68.27
46464;BME280;32161;48.148;-1.554;2023-04-22T00:44:58;99804.16;;;11.22;68.20
46464;BME280;32161;48.148;-1.554;2023-04-22T00:47:26;99808.00;;;11.26;68.22
46464;BME280;32161;48.148;-1.554;2023-04-22T00:49:55;99805.53;;;11.24;68.47
46464;BME280;32161;48.148;-1.554;2023-04-22T00:52:23;99802.56;;;11.26;68.39
46464;BME280;32161;48.148;-1.554;2023-04-22T00:54:51;99800.91;;;11.25;68.00
46464;BME280;32161;48.148;-1.554;2023-04-22T00:57:18;99791.66;;;11.26;67.44
46464;BME280;32161;48.148;-1.554;2023-04-22T00:59:46;99786.22;;;11.26;68.06
46464;BME280;32161;48.148;-1.554;2023-04-22T01:02:15;99794.16;;;11.28;68.04
46464;BME280;32161;48.148;-1.554;2023-04-22T01:04:43;99790.09;;;11.30;68.04
46464;BME280;32161;48.148;-1.554;2023-04-22T01:07:13;99777.00;;;11.27;67.70
46464;BME280;32161;48.148;-1.554;2023-04-22T01:09:41;99771.81;;;11.25;67.75
46464;BME280;32161;48.148;-1.554;2023-04-22T01:12:08;99767.25;;;11.31;67.27
46464;BME280;32161;48.148;-1.554;2023-04-22T01:14:36;99755.25;;;11.27;67.57
46464;BME280;32161;48.148;-1.554;2023-04-22T01:17:04;99754.44;;;11.27;67.82
46464;BME280;32161;48.148;-1.554;2023-04-22T01:19:31;99751.13;;;11.24;68.20
46464;BME280;32161;48.148;-1.554;2023-04-22T01:22:00;99748.16;;;11.26;68.23
46464;BME280;32161;48.148;-1.554;2023-04-22T01:24:30;99750.31;;;11.24;68.39
46464;BME280;32161;48.148;-1.554;2023-04-22T01:26:59;99741.88;;;11.25;67.54
46464;BME280;32161;48.148;-1.554;2023-04-22T01:29:27;99731.00;;;11.25;68.15
46464;BME280;32161;48.148;-1.554;2023-04-22T01:31:55;99730.75;;;11.27;67.49
46464;BME280;32161;48.148;-1.554;2023-04-22T01:34:23;99731.00;;;11.25;67.09
46464;BME280;32161;48.148;-1.554;2023-04-22T01:36:50;99735.09;;;11.23;67.47
46464;BME280;32161;48.148;-1.554;2023-04-22T01:39:18;99726.94;;;11.23;66.84
46464;BME280;32161;48.148;-1.554;2023-04-22T01:41:47;99731.78;;;11.21;66.74
46464;BME280;32161;48.148;-1.554;2023-04-22T01:44:15;99744.06;;;11.23;66.67
46464;BME280;32161;48.148;-1.554;2023-04-22T01:46:42;99747.28;;;11.20;67.16
46464;BME280;32161;48.148;-1.554;2023-04-22T01:49:10;99761.72;;;11.21;68.32
46464;BME280;32161;48.148;-1.554;2023-04-22T01:51:38;99771.50;;;11.22;67.74
46464;BME280;32161;48.148;-1.554;2023-04-22T01:54:05;99788.41;;;11.24;67.43
46464;BME280;32161;48.148;-1.554;2023-04-22T01:56:35;99798.19;;;11.25;68.22
46464;BME280;32161;48.148;-1.554;2023-04-22T01:59:05;99803.13;;;11.28;70.37
46464;BME280;32161;48.148;-1.554;2023-04-22T02:01:33;99807.19;;;11.25;69.98
46464;BME280;32161;48.148;-1.554;2023-04-22T02:04:00;99812.63;;;11.25;70.02
46464;BME280;32161;48.148;-1.554;2023-04-22T02:06:28;99810.72;;;11.26;71.23
46464;BME280;32161;48.148;-1.554;2023-04-22T02:08:56;99817.25;;;11.25;71.30
46464;BME280;32161;48.148;-1.554;2023-04-22T02:11:24;99822.69;;;11.25;71.58
46464;BME280;32161;48.148;-1.554;2023-04-22T02:13:51;99812.88;;;11.24;72.43
46464;BME280;32161;48.148;-1.554;2023-04-22T02:16:20;99806.31;;;11.20;71.98
46464;BME280;32161;48.148;-1.554;2023-04-22T02:18:48;99792.13;;;11.18;71.70
46464;BME280;32161;48.148;-1.554;2023-04-22T02:21:16;99779.63;;;11.17;71.78
46464;BME280;32161;48.148;-1.554;2023-04-22T02:23:43;99780.94;;;11.14;72.24
46464;BME280;32161;48.148;-1.554;2023-04-22T02:26:11;99773.34;;;11.11;72.53
46464;BME280;32161;48.148;-1.554;2023-04-22T02:28:38;99772.75;;;11.09;71.74
46464;BME280;32161;48.148;-1.554;2023-04-22T02:31:06;99755.03;;;11.07;70.67
46464;BME280;32161;48.148;-1.554;2023-04-22T02:33:35;99757.75;;;11.07;70.73
46464;BME280;32161;48.148;-1.554;2023-04-22T02:36:04;99762.38;;;11.06;72.63
46464;BME280;32161;48.148;-1.554;2023-04-22T02:38:32;99758.03;;;11.05;73.73
46464;BME280;32161;48.148;-1.554;2023-04-22T02:40:59;99759.13;;;11.04;73.32
46464;BME280;32161;48.148;-1.554;2023-04-22T02:43:27;99761.03;;;11.04;73.12
46464;BME280;32161;48.148;-1.554;2023-04-22T02:45:54;99755.59;;;11.04;73.73
46464;BME280;32161;48.148;-1.554;2023-04-22T02:48:22;99757.72;;;11.02;74.26
46464;BME280;32161;48.148;-1.554;2023-04-22T02:50:51;99752.78;;;10.98;74.55
46464;BME280;32161;48.148;-1.554;2023-04-22T02:53:19;99751.16;;;10.97;75.13
46464;BME280;32161;48.148;-1.554;2023-04-22T02:55:46;99743.59;;;10.99;75.61
46464;BME280;32161;48.148;-1.554;2023-04-22T02:58:15;99737.03;;;10.95;75.56
46464;BME280;32161;48.148;-1.554;2023-04-22T03:00:42;99728.28;;;10.93;75.87
46464;BME280;32161;48.148;-1.554;2023-04-22T03:03:10;99725.84;;;10.92;74.88
46464;BME280;32161;48.148;-1.554;2023-04-22T03:05:38;99734.00;;;10.92;74.82
46464;BME280;32161;48.148;-1.554;2023-04-22T03:08:07;99725.84;;;10.92;75.26
46464;BME280;32161;48.148;-1.554;2023-04-22T03:10:35;99740.25;;;10.92;73.63
46464;BME280;32161;48.148;-1.554;2023-04-22T03:13:02;99743.47;;;10.89;73.41
46464;BME280;32161;48.148;-1.554;2023-04-22T03:15:30;99756.50;;;10.87;74.85
46464;BME280;32161;48.148;-1.554;2023-04-22T03:17:57;99763.81;;;10.87;74.87
46464;BME280;32161;48.148;-1.554;2023-04-22T03:20:25;99785.03;;;10.85;73.84
46464;BME280;32161;48.148;-1.554;2023-04-22T03:22:53;99789.13;;;10.87;74.33
46464;BME280;32161;48.148;-1.554;2023-04-22T03:25:22;99779.94;;;10.93;72.90
46464;BME280;32161;48.148;-1.554;2023-04-22T03:27:50;99781.81;;;10.88;73.17
46464;BME280;32161;48.148;-1.554;2023-04-22T03:30:18;99773.66;;;10.88;73.80
46464;BME280;32161;48.148;-1.554;2023-04-22T03:32:45;99780.91;;;10.82;73.31
46464;BME280;32161;48.148;-1.554;2023-04-22T03:35:13;99780.59;;;10.79;75.21
46464;BME280;32161;48.148;-1.554;2023-04-22T03:37:41;99783.31;;;10.79;75.58
46464;BME280;32161;48.148;-1.554;2023-04-22T03:40:10;99775.97;;;10.79;75.40
46464;BME280;32161;48.148;-1.554;2023-04-22T03:42:39;99783.09;;;10.80;74.26
46464;BME280;32161;48.148;-1.554;2023-04-22T03:45:07;99777.53;;;10.70;75.01
46464;BME280;32161;48.148;-1.554;2023-04-22T03:47:35;99778.03;;;10.67;75.74
46464;BME280;32161;48.148;-1.554;2023-04-22T03:50:03;99774.19;;;10.63;75.95
46464;BME280;32161;48.148;-1.554;2023-04-22T03:52:30;99784.22;;;10.62;76.17
46464;BME280;32161;48.148;-1.554;2023-04-22T03:54:58;99777.72;;;10.63;76.53
46464;BME280;32161;48.148;-1.554;2023-04-22T03:57:26;99775.25;;;10.62;76.52
46464;BME280;32161;48.148;-1.554;2023-04-22T03:59:54;99769.81;;;10.62;76.48
46464;BME280;32161;48.148;-1.554;2023-04-22T04:02:22;99769.31;;;10.65;76.94
46464;BME280;32161;48.148;-1.554;2023-04-22T04:04:50;99762.81;;;10.66;78.19
46464;BME280;32161;48.148;-1.554;2023-04-22T04:07:18;99770.44;;;10.69;77.25
46464;BME280;32161;48.148;-1.554;2023-04-22T04:09:46;99763.31;;;10.63;77.95
46464;BME280;32161;48.148;-1.554;2023-04-22T04:12:13;99761.91;;;10.60;77.85
46464;BME280;32161;48.148;-1.554;2023-04-22T04:14:41;99762.19;;;10.59;78.45
46464;BME280;32161;48.148;-1.554;2023-04-22T04:17:10;99763.75;;;10.55;79.24
46464;BME280;32161;48.148;-1.554;2023-04-22T04:19:39;99761.28;;;10.53;80.02
46464;BME280;32161;48.148;-1.554;2023-04-22T04:22:06;99758.00;;;10.51;80.03
46464;BME280;32161;48.148;-1.554;2023-04-22T04:24:34;99748.47;;;10.48;80.21
46464;BME280;32161;48.148;-1.554;2023-04-22T04:27:07;99744.38;;;10.46;80.02
46464;BME280;32161;48.148;-1.554;2023-04-22T04:29:35;99743.28;;;10.47;80.89
46464;BME280;32161;48.148;-1.554;2023-04-22T04:32:02;99749.53;;;10.47;81.99
46464;BME280;32161;48.148;-1.554;2023-04-22T04:34:32;99745.44;;;10.45;82.12
46464;BME280;32161;48.148;-1.554;2023-04-22T04:36:59;99742.97;;;10.43;82.51
46464;BME280;32161;48.148;-1.554;2023-04-22T04:39:27;99738.94;;;10.46;82.60
46464;BME280;32161;48.148;-1.554;2023-04-22T04:41:55;99739.25;;;10.49;82.44
46464;BME280;32161;48.148;-1.554;2023-04-22T04:44:25;99746.00;;;10.47;82.13
46464;BME280;32161;48.148;-1.554;2023-04-22T04:46:53;99749.00;;;10.45;82.65
46464;BME280;32161;48.148;-1.554;2023-04-22T04:49:21;99749.50;;;10.42;82.79
46464;BME280;32161;48.148;-1.554;2023-04-22T04:51:50;99751.63;;;10.40;82.80
46464;BME280;32161;48.148;-1.554;2023-04-22T04:54:17;99747.53;;;10.38;81.72
46464;BME280;32161;48.148;-1.554;2023-04-22T04:56:45;99738.53;;;10.37;82.54
46464;BME280;32161;48.148;-1.554;2023-04-22T04:59:13;99734.19;;;10.36;82.56
46464;BME280;32161;48.148;-1.554;2023-04-22T05:01:40;99729.59;;;10.37;82.34
46464;BME280;32161;48.148;-1.554;2023-04-22T05:04:08;99732.06;;;10.38;83.11
46464;BME280;32161;48.148;-1.554;2023-04-22T05:06:36;99731.25;;;10.38;83.48
46464;BME280;32161;48.148;-1.554;2023-04-22T05:09:05;99738.31;;;10.39;84.16
46464;BME280;32161;48.148;-1.554;2023-04-22T05:11:33;99735.84;;;10.37;84.02
46464;BME280;32161;48.148;-1.554;2023-04-22T05:14:01;99737.72;;;10.37;84.24
46464;BME280;32161;48.148;-1.554;2023-04-22T05:16:29;99736.16;;;10.41;83.68
46464;BME280;32161;48.148;-1.554;2023-04-22T05:18:56;99735.00;;;10.37;83.60
46464;BME280;32161;48.148;-1.554;2023-04-22T05:21:24;99740.72;;;10.35;83.43
46464;BME280;32161;48.148;-1.554;2023-04-22T05:23:52;99746.97;;;10.36;83.15
46464;BME280;32161;48.148;-1.554;2023-04-22T05:26:20;99748.59;;;10.37;82.43
46464;BME280;32161;48.148;-1.554;2023-04-22T05:28:48;99757.00;;;10.35;82.36
46464;BME280;32161;48.148;-1.554;2023-04-22T05:31:16;99751.06;;;10.38;82.94
46464;BME280;32161;48.148;-1.554;2023-04-22T05:33:43;99758.41;;;10.38;83.54
46464;BME280;32161;48.148;-1.554;2023-04-22T05:36:11;99760.84;;;10.39;83.80
46464;BME280;32161;48.148;-1.554;2023-04-22T05:38:38;99773.88;;;10.37;83.42
46464;BME280;32161;48.148;-1.554;2023-04-22T05:41:06;99771.69;;;10.34;83.51
46464;BME280;32161;48.148;-1.554;2023-04-22T05:43:35;99785.75;;;10.31;82.81
46464;BME280;32161;48.148;-1.554;2023-04-22T05:46:03;99794.66;;;10.26;82.96
46464;BME280;32161;48.148;-1.554;2023-04-22T05:48:30;99794.97;;;10.30;82.29
46464;BME280;32161;48.148;-1.554;2023-04-22T05:50:58;99799.34;;;10.31;81.92
46464;BME280;32161;48.148;-1.554;2023-04-22T05:53:25;99800.97;;;10.32;81.75
46464;BME280;32161;48.148;-1.554;2023-04-22T05:55:54;99798.25;;;10.32;81.88
46464;BME280;32161;48.148;-1.554;2023-04-22T05:58:22;99806.47;;;10.37;81.21
46464;BME280;32161;48.148;-1.554;2023-04-22T06:00:51;99803.56;;;10.44;82.32
46464;BME280;32161;48.148;-1.554;2023-04-22T06:03:18;99809.63;;;10.51;82.71
46464;BME280;32161;48.148;-1.554;2023-04-22T06:05:46;99809.69;;;10.56;82.20
46464;BME280;32161;48.148;-1.554;2023-04-22T06:08:13;99813.03;;;10.63;81.56
46464;BME280;32161;48.148;-1.554;2023-04-22T06:10:41;99816.38;;;10.70;81.71
46464;BME280;32161;48.148;-1.554;2023-04-22T06:13:08;99819.16;;;10.75;81.76
46464;BME280;32161;48.148;-1.554;2023-04-22T06:15:37;99821.69;;;10.82;81.21
46464;BME280;32161;48.148;-1.554;2023-04-22T06:18:06;99823.09;;;10.85;81.19
46464;BME280;32161;48.148;-1.554;2023-04-22T06:20:35;99832.41;;;10.94;80.07
46464;BME280;32161;48.148;-1.554;2023-04-22T06:23:02;99827.81;;;10.94;80.06
46464;BME280;32161;48.148;-1.554;2023-04-22T06:25:31;99830.00;;;10.97;79.61
46464;BME280;32161;48.148;-1.554;2023-04-22T06:27:59;99828.94;;;10.98;79.07
46464;BME280;32161;48.148;-1.554;2023-04-22T06:30:27;99832.22;;;11.00;78.51
46464;BME280;32161;48.148;-1.554;2023-04-22T06:32:55;99837.72;;;11.06;77.99
46464;BME280;32161;48.148;-1.554;2023-04-22T06:35:24;99838.28;;;11.08;79.45
46464;BME280;32161;48.148;-1.554;2023-04-22T06:37:52;99847.63;;;11.17;79.01
46464;BME280;32161;48.148;-1.554;2023-04-22T06:40:19;99852.28;;;11.21;78.91
46464;BME280;32161;48.148;-1.554;2023-04-22T06:42:47;99856.44;;;11.29;78.71
46464;BME280;32161;48.148;-1.554;2023-04-22T06:45:15;99859.25;;;11.34;77.24
46464;BME280;32161;48.148;-1.554;2023-04-22T06:47:42;99866.81;;;11.32;76.58
46464;BME280;32161;48.148;-1.554;2023-04-22T06:50:10;99860.88;;;11.35;77.08
46464;BME280;32161;48.148;-1.554;2023-04-22T06:52:39;99853.34;;;11.42;75.83
46464;BME280;32161;48.148;-1.554;2023-04-22T06:55:07;99857.69;;;11.43;75.65
46464;BME280;32161;48.148;-1.554;2023-04-22T06:57:35;99858.50;;;11.44;76.15
46464;BME280;32161;48.148;-1.554;2023-04-22T07:00:03;99863.44;;;11.47;76.67
46464;BME280;32161;48.148;-1.554;2023-04-22T07:02:31;99868.91;;;11.52;77.13
46464;BME280;32161;48.148;-1.554;2023-04-22T07:04:59;99868.72;;;11.59;76.53
46464;BME280;32161;48.148;-1.554;2023-04-22T07:07:26;99874.19;;;11.64;76.05
46464;BME280;32161;48.148;-1.554;2023-04-22T07:09:55;99887.88;;;11.69;75.60
46464;BME280;32161;48.148;-1.554;2023-04-22T07:12:23;99883.28;;;11.74;76.07
46464;BME280;32161;48.148;-1.554;2023-04-22T07:14:51;99872.69;;;11.78;75.21
46464;BME280;32161;48.148;-1.554;2023-04-22T07:17:19;99880.16;;;11.88;74.78
46464;BME280;32161;48.148;-1.554;2023-04-22T07:19:47;99881.53;;;11.90;73.69
46464;BME280;32161;48.148;-1.554;2023-04-22T07:22:15;99882.94;;;11.93;73.66
46464;BME280;32161;48.148;-1.554;2023-04-22T07:24:42;99885.94;;;11.96;72.78
46464;BME280;32161;48.148;-1.554;2023-04-22T07:27:11;99887.88;;;12.01;72.42
46464;BME280;32161;48.148;-1.554;2023-04-22T07:29:39;99892.00;;;12.04;72.14
46464;BME280;32161;48.148;-1.554;2023-04-22T07:32:06;99883.00;;;12.03;72.23
46464;BME280;32161;48.148;-1.554;2023-04-22T07:34:34;99886.00;;;12.07;72.01
46464;BME280;32161;48.148;-1.554;2023-04-22T07:37:02;99887.41;;;12.09;74.06
46464;BME280;32161;48.148;-1.554;2023-04-22T07:39:30;99879.00;;;12.11;73.72
46464;BME280;32161;48.148;-1.554;2023-04-22T07:41:57;99886.72;;;12.29;71.40
46464;BME280;32161;48.148;-1.554;2023-04-22T07:44:26;99880.72;;;12.27;72.54
46464;BME280;32161;48.148;-1.554;2023-04-22T07:46:54;99891.63;;;12.27;74.31
46464;BME280;32161;48.148;-1.554;2023-04-22T07:49:21;99887.31;;;12.36;73.37
46464;BME280;32161;48.148;-1.554;2023-04-22T07:51:50;99882.97;;;12.40;73.19
46464;BME280;32161;48.148;-1.554;2023-04-22T07:54:18;99879.19;;;12.41;72.26
46464;BME280;32161;48.148;-1.554;2023-04-22T07:56:45;99885.44;;;12.42;73.46
46464;BME280;32161;48.148;-1.554;2023-04-22T07:59:13;99890.66;;;12.49;73.75
46464;BME280;32161;48.148;-1.554;2023-04-22T08:01:42;99883.94;;;12.66;71.09
46464;BME280;32161;48.148;-1.554;2023-04-22T08:04:11;99888.34;;;12.78;69.49
46464;BME280;32161;48.148;-1.554;2023-04-22T08:06:38;99898.91;;;12.64;69.50
46464;BME280;32161;48.148;-1.554;2023-04-22T08:09:06;99891.50;;;12.54;70.87
46464;BME280;32161;48.148;-1.554;2023-04-22T08:11:35;99893.72;;;12.57;68.62
46464;BME280;32161;48.148;-1.554;2023-04-22T08:14:02;99892.94;;;12.67;70.21
46464;BME280;32161;48.148;-1.554;2023-04-22T08:16:30;99899.25;;;12.78;68.15
46464;BME280;32161;48.148;-1.554;2023-04-22T08:18:59;99897.44;;;12.93;68.95
46464;BME280;32161;48.148;-1.554;2023-04-22T08:21:26;99897.38;;;12.83;69.10
46464;BME280;32161;48.148;-1.554;2023-04-22T08:23:54;99893.59;;;12.89;69.71
46464;BME280;32161;48.148;-1.554;2023-04-22T08:26:22;99902.88;;;12.99;71.81
46464;BME280;32161;48.148;-1.554;2023-04-22T08:28:51;99901.25;;;13.03;69.03
46464;BME280;32161;48.148;-1.554;2023-04-22T08:31:18;99907.00;;;13.01;69.67
46464;BME280;32161;48.148;-1.554;2023-04-22T08:33:46;99908.22;;;13.31;69.73
46464;BME280;32161;48.148;-1.554;2023-04-22T08:36:15;99908.53;;;13.34;70.07
46464;BME280;32161;48.148;-1.554;2023-04-22T08:38:42;99908.22;;;13.31;71.35
46464;BME280;32161;48.148;-1.554;2023-04-22T08:41:11;99920.81;;;13.42;67.90
46464;BME280;32161;48.148;-1.554;2023-04-22T08:43:40;99923.88;;;13.61;69.82
46464;BME280;32161;48.148;-1.554;2023-04-22T08:46:10;99910.50;;;13.85;70.92
46464;BME280;32161;48.148;-1.554;2023-04-22T08:48:40;99907.50;;;14.07;67.69
46464;BME280;32161;48.148;-1.554;2023-04-22T08:51:08;99917.59;;;14.16;67.83
46464;BME280;32161;48.148;-1.554;2023-04-22T08:53:37;99927.72;;;14.26;67.98
46464;BME280;32161;48.148;-1.554;2023-04-22T08:56:05;99918.41;;;14.37;65.55
46464;BME280;32161;48.148;-1.554;2023-04-22T08:58:33;99926.88;;;14.36;66.22
46464;BME280;32161;48.148;-1.554;2023-04-22T09:01:02;99920.88;;;14.39;68.21
46464;BME280;32161;48.148;-1.554;2023-04-22T09:03:30;99926.06;;;14.51;68.52
46464;BME280;32161;48.148;-1.554;2023-04-22T09:05:59;99927.94;;;14.45;68.26
46464;BME280;32161;48.148;-1.554;2023-04-22T09:08:29;99929.03;;;14.80;67.60
46464;BME280;32161;48.148;-1.554;2023-04-22T09:10:58;99933.16;;;14.62;68.69
46464;BME280;32161;48.148;-1.554;2023-04-22T09:13:26;99930.16;;;14.69;67.23
46464;BME280;32161;48.148;-1.554;2023-04-22T09:15:54;99932.78;;;14.99;67.37
46464;BME280;32161;48.148;-1.554;2023-04-22T09:18:21;99937.69;;;15.02;66.31
46464;BME280;32161;48.148;-1.554;2023-04-22T09:20:53;99942.66;;;14.95;68.48
46464;BME280;32161;48.148;-1.554;2023-04-22T09:23:21;99934.13;;;15.02;67.33
46464;BME280;32161;48.148;-1.554;2023-04-22T09:25:50;99942.03;;;15.19;64.90
46464;BME280;32161;48.148;-1.554;2023-04-22T09:28:20;99944.94;;;15.37;67.37
46464;BME280;32161;48.148;-1.554;2023-04-22T09:30:47;99940.44;;;15.57;65.75
46464;BME280;32161;48.148;-1.554;2023-04-22T09:33:15;99952.72;;;15.70;65.77
46464;BME280;32161;48.148;-1.554;2023-04-22T09:35:43;99949.59;;;15.86;65.09
46464;BME280;32161;48.148;-1.554;2023-04-22T09:38:11;99945.22;;;15.85;64.81
46464;BME280;32161;48.148;-1.554;2023-04-22T09:40:42;99946.47;;;15.98;64.90
46464;BME280;32161;48.148;-1.554;2023-04-22T09:43:10;99950.69;;;15.85;65.78
46464;BME280;32161;48.148;-1.554;2023-04-22T09:45:41;99943.75;;;15.98;67.21
46464;BME280;32161;48.148;-1.554;2023-04-22T09:48:11;99938.06;;;16.24;66.30
46464;BME280;32161;48.148;-1.554;2023-04-22T09:50:42;99935.50;;;16.38;63.42
46464;BME280;32161;48.148;-1.554;2023-04-22T09:53:13;99939.28;;;16.42;65.25
46464;BME280;32161;48.148;-1.554;2023-04-22T09:55:43;99947.78;;;16.40;63.02
46464;BME280;32161;48.148;-1.554;2023-04-22T09:58:13;99942.41;;;16.30;63.10
46464;BME280;32161;48.148;-1.554;2023-04-22T10:00:46;99942.03;;;16.42;63.75
46464;BME280;32161;48.148;-1.554;2023-04-22T10:03:15;99943.50;;;16.29;63.46
46464;BME280;32161;48.148;-1.554;2023-04-22T10:05:43;99937.13;;;16.39;64.64
46464;BME280;32161;48.148;-1.554;2023-04-22T10:08:13;99947.41;;;16.52;62.91
46464;BME280;32161;48.148;-1.554;2023-04-22T10:10:41;99942.31;;;16.69;62.64
46464;BME280;32161;48.148;-1.554;2023-04-22T10:13:09;99955.72;;;16.71;62.75
46464;BME280;32161;48.148;-1.554;2023-04-22T10:15:43;99963.19;;;16.94;63.78
46464;BME280;32161;48.148;-1.554;2023-04-22T10:18:15;99960.56;;;17.08;63.58
46464;BME280;32161;48.148;-1.554;2023-04-22T10:20:45;99959.84;;;17.21;66.44
46464;BME280;32161;48.148;-1.554;2023-04-22T10:23:17;99964.59;;;17.16;61.89
46464;BME280;32161;48.148;-1.554;2023-04-22T10:25:47;99959.25;;;17.24;62.64
46464;BME280;32161;48.148;-1.554;2023-04-22T10:28:16;99962.84;;;17.44;63.27
46464;BME280;32161;48.148;-1.554;2023-04-22T10:30:46;99960.41;;;17.42;62.17
46464;BME280;32161;48.148;-1.554;2023-04-22T10:33:37;99960.81;;;17.73;62.04
46464;BME280;32161;48.148;-1.554;2023-04-22T10:36:07;99964.00;;;17.62;59.75
46464;BME280;32161;48.148;-1.554;2023-04-22T10:38:35;99966.44;;;17.63;59.69
46464;BME280;32161;48.148;-1.554;2023-04-22T10:41:03;99956.59;;;17.81;61.48
46464;BME280;32161;48.148;-1.554;2023-04-22T10:43:41;99952.91;;;17.67;60.47
46464;BME280;32161;48.148;-1.554;2023-04-22T10:49:30;99954.06;;;18.03;60.25
46464;BME280;32161;48.148;-1.554;2023-04-22T10:51:59;99957.88;;;17.89;60.89
46464;BME280;32161;48.148;-1.554;2023-04-22T10:54:57;99941.81;;;17.77;60.73
46464;BME280;32161;48.148;-1.554;2023-04-22T10:57:36;99958.59;;;17.94;60.27
46464;BME280;32161;48.148;-1.554;2023-04-22T11:00:31;99940.88;;;17.63;60.65
46464;BME280;32161;48.148;-1.554;2023-04-22T11:03:14;99945.72;;;17.71;61.62
46464;BME280;32161;48.148;-1.554;2023-04-22T11:05:44;99949.16;;;17.81;60.21
46464;BME280;32161;48.148;-1.554;2023-04-22T11:08:17;99948.50;;;17.90;60.08
46464;BME280;32161;48.148;-1.554;2023-04-22T11:10:48;99947.66;;;18.08;58.64
46464;BME280;32161;48.148;-1.554;2023-04-22T11:13:18;99959.38;;;18.14;59.00
46464;BME280;32161;48.148;-1.554;2023-04-22T11:15:48;99963.03;;;18.09;59.98
46464;BME280;32161;48.148;-1.554;2023-04-22T11:18:19;99958.97;;;18.07;58.82
46464;BME280;32161;48.148;-1.554;2023-04-22T11:20:49;99967.13;;;18.12;58.46
46464;BME280;32161;48.148;-1.554;2023-04-22T11:23:21;99963.09;;;18.23;57.80
46464;BME280;32161;48.148;-1.554;2023-04-22T11:25:54;99961.97;;;18.24;58.75
46464;BME280;32161;48.148;-1.554;2023-04-22T11:28:23;99967.09;;;18.30;57.04
46464;BME280;32161;48.148;-1.554;2023-04-22T11:30:51;99965.63;;;18.52;56.60
46464;BME280;32161;48.148;-1.554;2023-04-22T11:33:19;99964.03;;;18.65;57.50
46464;BME280;32161;48.148;-1.554;2023-04-22T11:35:50;99960.75;;;18.63;57.84
46464;BME280;32161;48.148;-1.554;2023-04-22T11:38:17;99964.66;;;18.75;57.24
46464;BME280;32161;48.148;-1.554;2023-04-22T11:40:45;99972.56;;;18.63;57.18
46464;BME280;32161;48.148;-1.554;2023-04-22T11:43:13;99972.78;;;18.53;58.56
46464;BME280;32161;48.148;-1.554;2023-04-22T11:45:41;99966.75;;;18.51;59.31
46464;BME280;32161;48.148;-1.554;2023-04-22T11:48:10;99973.59;;;18.67;58.94
46464;BME280;32161;48.148;-1.554;2023-04-22T11:50:40;99964.53;;;18.67;57.98
46464;BME280;32161;48.148;-1.554;2023-04-22T11:53:15;99962.69;;;18.62;59.83
46464;BME280;32161;48.148;-1.554;2023-04-22T11:55:45;99969.75;;;18.68;59.01
46464;BME280;32161;48.148;-1.554;2023-04-22T11:58:18;99969.38;;;18.89;56.27
46464;BME280;32161;48.148;-1.554;2023-04-22T12:00:49;99974.66;;;18.71;57.26
46464;BME280;32161;48.148;-1.554;2023-04-22T12:03:19;99977.06;;;18.59;58.10
46464;BME280;32161;48.148;-1.554;2023-04-22T12:05:51;99978.31;;;18.34;58.15
46464;BME280;32161;48.148;-1.554;2023-04-22T12:08:23;99986.50;;;18.20;58.25
46464;BME280;32161;48.148;-1.554;2023-04-22T12:10:54;99980.66;;;18.08;60.44
46464;BME280;32161;48.148;-1.554;2023-04-22T12:13:23;99975.84;;;18.00;61.82
46464;BME280;32161;48.148;-1.554;2023-04-22T12:15:56;99970.16;;;18.10;62.78
46464;BME280;32161;48.148;-1.554;2023-04-22T12:18:28;99979.94;;;18.35;61.08
46464;BME280;32161;48.148;-1.554;2023-04-22T12:20:59;99973.69;;;18.62;61.78
46464;BME280;32161;48.148;-1.554;2023-04-22T12:23:29;99981.50;;;18.74;60.26
46464;BME280;32161;48.148;-1.554;2023-04-22T12:25:56;99981.81;;;18.86;62.24
46464;BME280;32161;48.148;-1.554;2023-04-22T12:28:24;99982.03;;;18.76;60.71
46464;BME280;32161;48.148;-1.554;2023-04-22T12:30:52;99983.69;;;19.18;58.78
46464;BME280;32161;48.148;-1.554;2023-04-22T12:33:19;99976.72;;;19.21;58.39
46464;BME280;32161;48.148;-1.554;2023-04-22T12:35:47;99978.16;;;19.32;60.86
46464;BME280;32161;48.148;-1.554;2023-04-22T12:38:17;99978.03;;;19.51;59.22
46464;BME280;32161;48.148;-1.554;2023-04-22T12:40:46;99976.94;;;19.38;61.21
46464;BME280;32161;48.148;-1.554;2023-04-22T12:43:14;99962.41;;;19.60;59.12
46464;BME280;32161;48.148;-1.554;2023-04-22T12:45:42;99975.72;;;19.31;59.35
46464;BME280;32161;48.148;-1.554;2023-04-22T12:48:09;99973.38;;;18.96;59.99
46464;BME280;32161;48.148;-1.554;2023-04-22T12:50:37;99973.28;;;18.88;58.99
46464;BME280;32161;48.148;-1.554;2023-04-22T12:53:05;99982.50;;;18.64;61.00
46464;BME280;32161;48.148;-1.554;2023-04-22T12:55:32;99979.31;;;18.57;62.40
46464;BME280;32161;48.148;-1.554;2023-04-22T12:58:02;99981.31;;;18.98;57.54
46464;BME280;32161;48.148;-1.554;2023-04-22T13:00:30;99981.44;;;18.93;59.10